createdAt,value
2023-05-01T00:02:17.628Z,12.3
2023-05-01T00:07:17.596Z,12.4
2023-05-01T00:12:17.657Z,12.4
2023-05-01T00:17:17.580Z,12.5
2023-05-01T00:22:17.567Z,12.5
2023-05-01T00:27:17.538Z,12.5
2023-05-01T00:32:17.499Z,12.5
2023-05-01T00:37:17.500Z,12.3
2023-05-01T00:42:17.474Z,12.3
2023-05-01T00:47:17.447Z,12.4
2023-05-01T00:52:17.426Z,12.4
2023-05-01T00:57:17.440Z,12.4
2023-05-01T01:02:17.388Z,12.4
2023-05-01T01:07:17.379Z,12.4
2023-05-01T01:12:17.340Z,12.4
2023-05-01T01:17:17.383Z,12.3
2023-05-01T01:22:17.349Z,12.3
2023-05-01T01:27:17.348Z,12.2
2023-05-01T01:32:17.264Z,12.2
2023-05-01T01:37:17.238Z,12.2
2023-05-01T01:42:17.279Z,12.2
2023-05-01T01:47:17.298Z,12.3
2023-05-01T01:52:17.176Z,12.3
2023-05-01T01:57:17.163Z,12.3
2023-05-01T02:02:17.211Z,12.2
2023-05-01T02:07:17.119Z,12.2
2023-05-01T02:12:17.098Z,12.1
2023-05-01T02:17:17.099Z,12.1
2023-05-01T02:22:17.061Z,12
2023-05-01T02:27:17.145Z,12
2023-05-01T02:32:17.025Z,12.1
2023-05-01T02:37:17.003Z,12
2023-05-01T02:42:17.017Z,12.1
2023-05-01T02:47:16.963Z,12.1
2023-05-01T02:52:16.932Z,11.9
2023-05-01T02:57:16.971Z,11.8
2023-05-01T03:02:16.952Z,11.8
2023-05-01T03:07:16.877Z,11.8
2023-05-01T03:12:16.869Z,11.8
2023-05-01T03:17:16.875Z,11.8
2023-05-01T03:22:16.916Z,11.8
2023-05-01T03:27:16.820Z,11.7
2023-05-01T03:32:16.770Z,11.7
2023-05-01T03:37:16.757Z,11.7
2023-05-01T03:42:16.884Z,11.7
2023-05-01T03:47:16.748Z,11.7
2023-05-01T03:52:16.713Z,11.7
2023-05-01T03:57:16.725Z,11.8
2023-05-01T04:02:16.654Z,11.9
2023-05-01T04:07:16.635Z,12
2023-05-01T04:12:16.626Z,12
2023-05-01T04:17:16.638Z,12
2023-05-01T04:22:16.572Z,12
2023-05-01T04:27:16.602Z,12
2023-05-01T04:32:16.526Z,12
2023-05-01T04:37:16.564Z,12.1
2023-05-01T04:42:16.497Z,12.1
2023-05-01T04:47:16.483Z,12.1
2023-05-01T04:52:16.479Z,12.1
2023-05-01T04:57:16.428Z,12.1
2023-05-01T05:02:16.417Z,12.1
2023-05-01T05:07:16.451Z,12.1
2023-05-01T05:12:16.406Z,12.2
2023-05-01T05:17:16.365Z,12.2
2023-05-01T05:22:16.330Z,12.2
2023-05-01T05:27:16.324Z,12.2
2023-05-01T05:32:16.373Z,12.3
2023-05-01T05:37:16.343Z,12.3
2023-05-01T05:42:16.269Z,12.3
2023-05-01T05:47:16.234Z,12.4
2023-05-01T05:52:16.221Z,12.3
2023-05-01T05:57:16.272Z,12.3
2023-05-01T06:02:16.176Z,12.3
2023-05-01T06:07:16.141Z,12.4
2023-05-01T06:12:16.262Z,12.3
2023-05-01T06:17:16.112Z,12.4
2023-05-01T06:22:16.097Z,12.6
2023-05-01T06:27:16.128Z,12.7
2023-05-01T06:32:16.130Z,12.7
2023-05-01T06:37:16.089Z,12.7
2023-05-01T06:42:16.018Z,12.7
2023-05-01T06:47:15.977Z,12.7
2023-05-01T06:52:15.978Z,12.7
2023-05-01T06:57:16.002Z,12.6
2023-05-01T07:02:15.943Z,12.6
2023-05-01T07:07:15.906Z,12.6
2023-05-01T07:12:15.979Z,12.6
2023-05-01T07:17:15.896Z,12.7
2023-05-01T07:22:15.859Z,12.7
2023-05-01T07:27:15.860Z,12.8
2023-05-01T07:32:15.808Z,12.9
2023-05-01T07:37:15.796Z,13
2023-05-01T07:42:15.846Z,13.3
2023-05-01T07:47:15.745Z,13.5
2023-05-01T07:52:15.749Z,13.7
2023-05-01T07:57:15.709Z,13.9
2023-05-01T08:02:15.680Z,14
2023-05-01T08:07:15.699Z,14
2023-05-01T08:12:15.658Z,13.9
2023-05-01T08:17:15.631Z,13.9
2023-05-01T08:22:15.666Z,14.1
2023-05-01T08:27:15.577Z,14.4
2023-05-01T08:32:15.566Z,15
2023-05-01T08:37:15.544Z,15.4
2023-05-01T08:42:15.522Z,15.6
2023-05-01T08:47:15.501Z,15.9
2023-05-01T08:52:15.495Z,16.3
2023-05-01T08:57:15.476Z,16.5
2023-05-01T09:02:15.452Z,16.9
2023-05-01T09:07:15.423Z,17
2023-05-01T09:12:15.392Z,17
2023-05-01T09:17:15.392Z,17.6
2023-05-01T09:22:15.366Z,21.2
2023-05-01T09:27:15.323Z,24.5
2023-05-01T09:32:15.302Z,23.6
2023-05-01T09:37:15.278Z,25
2023-05-01T09:42:15.274Z,27.8
2023-05-01T09:47:15.246Z,28.5
2023-05-01T09:52:15.238Z,29.4
2023-05-01T09:57:15.201Z,28.2
2023-05-01T10:02:15.180Z,26.9
2023-05-01T10:07:15.340Z,27.6
2023-05-01T10:12:15.315Z,28.8
2023-05-01T10:17:15.315Z,30.4
2023-05-01T10:22:15.343Z,32.1
2023-05-01T10:27:15.252Z,30.6
2023-05-01T10:32:15.246Z,27.1
2023-05-01T10:37:15.196Z,25.4
2023-05-01T10:42:15.235Z,24.2
2023-05-01T10:47:15.156Z,23.3
2023-05-01T10:52:15.088Z,22.7
2023-05-01T10:57:14.997Z,22.7
2023-05-01T11:02:14.941Z,22.5
2023-05-01T11:07:14.907Z,22.5
2023-05-01T11:12:14.884Z,22.1
2023-05-01T11:17:14.874Z,21.9
2023-05-01T11:22:14.871Z,21.5
2023-05-01T11:27:14.982Z,21.2
2023-05-01T11:32:14.801Z,21.1
2023-05-01T11:37:14.770Z,21.1
2023-05-01T11:42:14.831Z,21
2023-05-01T11:47:14.749Z,20.8
2023-05-01T11:52:14.722Z,20.8
2023-05-01T11:57:14.711Z,20.6
2023-05-01T12:02:14.673Z,20.2
2023-05-01T12:07:14.652Z,19.2
2023-05-01T12:12:14.673Z,18.1
2023-05-01T12:17:14.668Z,17.3
2023-05-01T12:22:14.627Z,16.8
2023-05-01T12:27:14.682Z,16.6
2023-05-01T12:32:14.544Z,16.3
2023-05-01T12:37:14.589Z,16.1
2023-05-01T12:42:14.501Z,15.9
2023-05-01T12:47:14.480Z,15.5
2023-05-01T12:52:14.457Z,15.4
2023-05-01T12:57:14.473Z,15.4
2023-05-01T13:02:14.495Z,15.4
2023-05-01T13:07:14.456Z,15.4
2023-05-01T13:12:14.377Z,15.4
2023-05-01T13:17:14.363Z,15.4
2023-05-01T13:22:14.437Z,15.6
2023-05-01T13:27:14.373Z,15.5
2023-05-01T13:32:14.288Z,15.6
2023-05-01T13:37:14.331Z,15.9
2023-05-01T13:42:14.333Z,16.4
2023-05-01T13:47:14.222Z,16.7
2023-05-01T13:52:14.330Z,16.6
2023-05-01T13:57:14.281Z,16.6
2023-05-01T14:02:14.158Z,16.5
2023-05-01T14:07:14.150Z,16.5
2023-05-01T14:12:14.124Z,16.3
2023-05-01T14:17:14.096Z,16.4
2023-05-01T14:22:14.073Z,16.4
2023-05-01T14:27:14.126Z,16.4
2023-05-01T14:32:14.042Z,16.5
2023-05-01T14:37:14.054Z,16.5
2023-05-01T14:42:14.004Z,16.4
2023-05-01T14:47:13.998Z,16.5
2023-05-01T14:52:13.964Z,16.6
2023-05-01T14:57:14.028Z,16.6
2023-05-01T15:02:13.920Z,16.7
2023-05-01T15:07:13.935Z,16.7
2023-05-01T15:12:13.916Z,16.6
2023-05-01T15:17:13.956Z,16.6
2023-05-01T15:22:13.997Z,16.6
2023-05-01T15:27:13.833Z,16.7
2023-05-01T15:32:13.806Z,16.8
2023-05-01T15:37:13.870Z,16.8
2023-05-01T15:42:13.775Z,16.7
2023-05-01T15:47:13.735Z,16.8
2023-05-01T15:52:13.738Z,16.8
2023-05-01T15:57:13.729Z,16.9
2023-05-01T16:02:13.673Z,17
2023-05-01T16:07:13.658Z,17
2023-05-01T16:12:13.659Z,16.9
2023-05-01T16:17:13.597Z,16.9
2023-05-01T16:22:13.600Z,16.8
2023-05-01T16:27:13.622Z,16.8
2023-05-01T16:32:13.603Z,16.7
2023-05-01T16:37:13.527Z,16.6
2023-05-01T16:42:13.499Z,16.6
2023-05-01T16:47:13.472Z,16.6
2023-05-01T16:52:13.470Z,16.6
2023-05-01T16:57:13.426Z,16.5
2023-05-01T17:02:13.425Z,16.4
2023-05-01T17:07:13.498Z,16.4
2023-05-01T17:12:13.391Z,16.3
2023-05-01T17:17:13.365Z,16.2
2023-05-01T17:22:13.388Z,16.2
2023-05-01T17:27:13.362Z,16.1
2023-05-01T17:32:13.291Z,16.1
2023-05-01T17:37:13.260Z,16.1
2023-05-01T17:42:13.266Z,16.1
2023-05-01T17:47:13.230Z,16.1
2023-05-01T17:52:13.228Z,16
2023-05-01T17:57:13.184Z,16
2023-05-01T18:02:13.200Z,16
2023-05-01T18:07:13.309Z,15.9
2023-05-01T18:12:13.222Z,15.8
2023-05-01T18:17:13.123Z,15.8
2023-05-01T18:22:13.091Z,15.8
2023-05-01T18:27:13.104Z,15.7
2023-05-01T18:32:13.047Z,15.7
2023-05-01T18:37:13.023Z,15.6
2023-05-01T18:42:12.994Z,15.5
2023-05-01T18:47:12.981Z,15.4
2023-05-01T18:52:12.967Z,15.2
2023-05-01T18:57:12.957Z,15.1
2023-05-01T19:02:12.911Z,15
2023-05-01T19:07:12.932Z,14.9
2023-05-01T19:12:12.873Z,14.8
2023-05-01T19:17:12.870Z,14.6
2023-05-01T19:22:12.890Z,14.6
2023-05-01T19:27:12.877Z,14.6
2023-05-01T19:32:12.781Z,14.5
2023-05-01T19:37:12.758Z,14.4
2023-05-01T19:42:12.745Z,14.4
2023-05-01T19:47:12.748Z,14.4
2023-05-01T19:52:12.712Z,14.3
2023-05-01T19:57:12.729Z,14.2
2023-05-01T20:02:12.659Z,14.1
2023-05-01T20:07:12.642Z,14
2023-05-01T20:12:12.643Z,14
2023-05-01T20:17:12.706Z,13.9
2023-05-01T20:22:12.616Z,13.8
2023-05-01T20:27:12.664Z,13.8
2023-05-01T20:32:12.549Z,13.7
2023-05-01T20:37:12.578Z,13.7
2023-05-01T20:42:12.570Z,13.7
2023-05-01T20:47:12.477Z,13.6
2023-05-01T20:52:12.474Z,13.5
2023-05-01T20:57:12.443Z,13.6
2023-05-01T21:02:12.445Z,13.5
2023-05-01T21:07:12.409Z,13.5
2023-05-01T21:12:12.446Z,13.4
2023-05-01T21:17:12.353Z,13.3
2023-05-01T21:22:12.330Z,13.4
2023-05-01T21:27:12.318Z,13.3
2023-05-01T21:32:12.304Z,13.3
2023-05-01T21:37:12.294Z,13.2
2023-05-01T21:42:12.254Z,13.2
2023-05-01T21:47:12.227Z,13.2
2023-05-01T21:52:12.219Z,13.1
2023-05-01T21:57:12.193Z,13
2023-05-01T22:02:12.231Z,12.9
2023-05-01T22:07:12.192Z,12.9
2023-05-01T22:12:12.211Z,12.8
2023-05-01T22:17:12.112Z,12.8
2023-05-01T22:22:12.102Z,12.7
2023-05-01T22:27:12.092Z,12.5
2023-05-01T22:32:12.053Z,12.4
2023-05-01T22:37:12.038Z,12.4
2023-05-01T22:42:12.124Z,12.3
2023-05-01T22:47:12.009Z,12.3
2023-05-01T22:52:12.041Z,12.3
2023-05-01T22:57:11.955Z,12.2
2023-05-01T23:02:12.071Z,12.2
2023-05-01T23:07:11.917Z,12.2
2023-05-01T23:12:11.923Z,12.1
2023-05-01T23:17:11.991Z,12
2023-05-01T23:22:11.905Z,12
2023-05-01T23:27:11.826Z,11.8
2023-05-01T23:32:11.831Z,11.7
2023-05-01T23:37:11.787Z,11.6
2023-05-01T23:42:11.776Z,11.5
2023-05-01T23:47:11.754Z,11.5
2023-05-01T23:52:11.742Z,11.4
2023-05-01T23:57:11.714Z,11.5
